Date,TemperatureHighF,TemperatureAvgF,TemperatureLowF,DewpointHighF,DewpointAvgF,DewpointLowF,HumidityHigh,HumidityAvg,HumidityLow,PressureMaxIn,PressureMinIn,WindSpeedMaxMPH,WindSpeedAvgMPH,GustSpeedMaxMPH,PrecipitationSumIn
2013-6-1,88.2,77.0,73.8,78.9,75.0,73.5,99,94,65,29.98,29.93,12,1,12,0.00
2013-6-3,91.8,81.2,76.6,77.8,74.9,68.8,99,82,57,29.88,29.80,11,2,11,0.02
2013-6-4,93.6,80.8,73.4,84.1,75.7,69.7,99,86,48,29.92,29.84,12,2,12,0.71
2013-6-5,91.8,80.2,69.1,81.9,75.2,67.8,99,86,51,29.92,29.81,13,2,13,0.08
2013-6-6,90.7,77.1,67.5,74.1,70.0,66.5,99,80,56,29.84,29.68,17,3,17,0.00
2013-6-7,90.7,78.7,73.4,77.7,73.7,70.2,99,86,54,29.86,29.73,15,4,15,0.00
2013-6-8,94.5,81.9,72.3,79.0,73.5,66.5,99,78,44,30.00,29.84,11,3,12,0.06
2013-6-9,77.7,74.2,70.9,77.5,73.9,70.6,99,99,98,30.02,29.90,14,3,14,1.41
2013-6-10,82.8,77.4,73.2,80.1,76.5,16.5,99,97,84,30.04,29.93,12,2,12,0.58
2013-6-11,92.7,83.2,77.0,84.6,79.1,75.7,99,88,62,30.07,29.97,12,2,12,0.01
2013-6-12,92.8,85.0,79.9,81.6,79.3,72.5,99,84,60,30.07,29.96,10,3,10,0.00
2013-6-13,92.3,86.2,81.0,80.8,77.2,72.6,97,75,56,30.01,29.83,11,4,11,0.00
2013-6-14,92.7,84.7,77.7,80.1,74.5,65.5,99,73,45,29.91,29.81,15,5,15,0.12
2013-6-15,95.2,82.9,73.9,80.2,71.6,63.7,99,70,39,29.98,29.88,8,2,8,0.00
2013-6-16,92.8,83.6,76.8,82.1,78.0,70.7,99,84,53,30.02,29.94,9,2,9,0.00
2013-6-17,93.2,85.8,82.4,80.5,75.8,71.4,90,73,53,29.99,29.92,13,4,13,0.00
2013-6-18,92.8,84.8,75.7,78.7,74.9,69.7,99,73,53,29.98,29.85,17,6,17,0.30
2013-6-19,89.6,79.5,72.1,81.0,73.6,14.5,99,85,10,30.00,29.89,8,3,14,0.19
2013-6-20,91.6,81.7,74.1,79.1,74.7,64.5,99,81,44,30.06,29.96,19,3,19,0.00
2013-6-21,91.8,80.1,73.0,80.1,74.3,66.5,99,85,47,30.08,30.00,14,2,14,0.01
2013-6-22,93.4,81.6,72.5,78.1,73.4,64.7,99,79,44,30.07,29.96,10,2,10,0.00
2013-6-23,92.7,77.4,73.6,81.9,76.2,73.3,99,96,60,30.06,29.98,8,2,8,1.83
2013-6-24,91.4,81.2,73.9,84.2,76.5,73.4,99,87,59,30.13,30.03,13,2,13,0.28
2013-6-25,95.2,82.8,74.8,80.1,75.7,71.5,99,81,49,30.09,29.99,9,2,9,0.00
2013-6-26,93.4,83.5,76.8,80.1,77.0,72.0,99,82,51,30.04,29.93,13,2,13,0.00
2013-6-27,95.7,86.9,82.0,83.8,78.9,74.1,97,78,56,29.98,29.87,11,4,11,0.01
2013-6-28,93.0,87.9,84.0,85.4,81.0,73.7,99,81,56,29.89,29.71,14,6,14,0.00
2013-6-29,96.3,85.1,75.9,86.4,75.1,69.4,99,73,52,29.76,29.64,17,5,17,0.01
2013-6-30,96.3,81.8,73.4,79.3,73.0,62.8,99,77,37,29.74,29.65,13,3,13,0.00